sensor_id;sensor_type;location;lat;lon;timestamp;pressure;altitude;pressure_sealevel;temperature;humidity
39177;BME280;24904;52.208;21.192;2022-10-18T00:05:02;101450.14;;;14.10;77.41
39177;BME280;24904;52.208;21.192;2022-10-18T00:10:07;101452.02;;;14.05;77.52
39177;BME280;24904;52.208;21.192;2022-10-18T00:15:11;101449.61;;;14.02;77.62
39177;BME280;24904;52.208;21.192;2022-10-18T00:20:14;101443.41;;;13.98;77.68
39177;BME280;24904;52.208;21.192;2022-10-18T00:25:18;101445.16;;;13.94;77.77
39177;BME280;24904;52.208;21.192;2022-10-18T00:30:21;101437.13;;;13.90;77.91
39177;BME280;24904;52.208;21.192;2022-10-18T00:35:24;101424.32;;;13.87;77.99
39177;BME280;24904;52.208;21.192;2022-10-18T00:40:28;101419.16;;;13.85;78.03
39177;BME280;24904;52.208;21.192;2022-10-18T00:45:31;101420.92;;;13.81;78.15
39177;BME280;24904;52.208;21.192;2022-10-18T00:50:34;101419.06;;;13.79;78.22
39177;BME280;24904;52.208;21.192;2022-10-18T01:03:49;101413.98;;;13.76;78.12
39177;BME280;24904;52.208;21.192;2022-10-18T01:09:04;101407.48;;;13.74;78.15
39177;BME280;24904;52.208;21.192;2022-10-18T01:14:17;101399.34;;;13.73;78.08
39177;BME280;24904;52.208;21.192;2022-10-18T01:25:16;101369.22;;;13.67;78.06
39177;BME280;24904;52.208;21.192;2022-10-18T01:30:44;101366.38;;;13.62;78.06
39177;BME280;24904;52.208;21.192;2022-10-18T01:35:54;101360.75;;;13.61;78.03
39177;BME280;24904;52.208;21.192;2022-10-18T01:41:01;101359.63;;;13.59;78.01
39177;BME280;24904;52.208;21.192;2022-10-18T01:46:09;101358.27;;;13.58;77.95
39177;BME280;24904;52.208;21.192;2022-10-18T01:51:16;101353.77;;;13.56;77.89
39177;BME280;24904;52.208;21.192;2022-10-18T01:56:35;101353.35;;;13.55;77.79
39177;BME280;24904;52.208;21.192;2022-10-18T02:01:52;101353.54;;;13.51;77.69
39177;BME280;24904;52.208;21.192;2022-10-18T02:07:05;101351.08;;;13.46;77.74
39177;BME280;24904;52.208;21.192;2022-10-18T02:12:12;101353.17;;;13.44;77.78
39177;BME280;24904;52.208;21.192;2022-10-18T02:17:20;101356.52;;;13.40;77.77
39177;BME280;24904;52.208;21.192;2022-10-18T02:22:29;101359.44;;;13.36;77.74
39177;BME280;24904;52.208;21.192;2022-10-18T02:27:35;101352.54;;;13.33;77.76
39177;BME280;24904;52.208;21.192;2022-10-18T02:32:43;101358.61;;;13.28;77.64
39177;BME280;24904;52.208;21.192;2022-10-18T02:37:51;101357.45;;;13.24;77.74
39177;BME280;24904;52.208;21.192;2022-10-18T02:42:58;101355.00;;;13.20;77.70
39177;BME280;24904;52.208;21.192;2022-10-18T02:48:04;101357.82;;;13.15;77.66
39177;BME280;24904;52.208;21.192;2022-10-18T02:53:09;101360.86;;;13.13;77.70
39177;BME280;24904;52.208;21.192;2022-10-18T02:58:14;101364.38;;;13.11;77.70
39177;BME280;24904;52.208;21.192;2022-10-18T03:03:19;101357.66;;;13.06;77.53
39177;BME280;24904;52.208;21.192;2022-10-18T03:08:24;101360.02;;;13.01;77.62
39177;BME280;24904;52.208;21.192;2022-10-18T03:13:29;101360.73;;;13.00;77.57
39177;BME280;24904;52.208;21.192;2022-10-18T03:18:34;101364.96;;;12.95;77.62
39177;BME280;24904;52.208;21.192;2022-10-18T03:23:39;101359.85;;;12.91;77.63
39177;BME280;24904;52.208;21.192;2022-10-18T03:28:45;101358.06;;;12.88;77.69
39177;BME280;24904;52.208;21.192;2022-10-18T03:33:50;101356.55;;;12.86;77.78
39177;BME280;24904;52.208;21.192;2022-10-18T03:38:55;101353.55;;;12.86;77.62
39177;BME280;24904;52.208;21.192;2022-10-18T03:44:00;101351.95;;;12.84;77.59
39177;BME280;24904;52.208;21.192;2022-10-18T03:49:05;101347.13;;;12.79;77.50
39177;BME280;24904;52.208;21.192;2022-10-18T03:54:10;101352.82;;;12.76;77.46
39177;BME280;24904;52.208;21.192;2022-10-18T03:59:15;101352.44;;;12.77;77.49
39177;BME280;24904;52.208;21.192;2022-10-18T04:04:20;101352.42;;;12.76;77.29
39177;BME280;24904;52.208;21.192;2022-10-18T04:09:25;101344.09;;;12.77;77.34
39177;BME280;24904;52.208;21.192;2022-10-18T04:14:30;101351.41;;;12.81;77.25
39177;BME280;24904;52.208;21.192;2022-10-18T04:19:35;101354.02;;;12.86;77.11
39177;BME280;24904;52.208;21.192;2022-10-18T04:24:40;101347.70;;;12.85;76.92
39177;BME280;24904;52.208;21.192;2022-10-18T04:29:45;101352.19;;;12.81;76.69
39177;BME280;24904;52.208;21.192;2022-10-18T04:34:50;101360.21;;;12.80;76.84
39177;BME280;24904;52.208;21.192;2022-10-18T04:39:55;101358.57;;;12.81;76.73
39177;BME280;24904;52.208;21.192;2022-10-18T04:45:01;101353.96;;;12.79;76.66
39177;BME280;24904;52.208;21.192;2022-10-18T04:50:07;101356.95;;;12.78;76.60
39177;BME280;24904;52.208;21.192;2022-10-18T04:55:29;101357.33;;;12.77;76.43
39177;BME280;24904;52.208;21.192;2022-10-18T05:00:34;101362.49;;;12.70;76.42
39177;BME280;24904;52.208;21.192;2022-10-18T05:05:41;101365.52;;;12.68;76.61
39177;BME280;24904;52.208;21.192;2022-10-18T05:10:49;101365.30;;;12.66;76.73
39177;BME280;24904;52.208;21.192;2022-10-18T05:15:54;101375.11;;;12.59;76.64
39177;BME280;24904;52.208;21.192;2022-10-18T05:21:02;101370.70;;;12.55;76.84
39177;BME280;24904;52.208;21.192;2022-10-18T05:26:07;101374.91;;;12.49;76.71
39177;BME280;24904;52.208;21.192;2022-10-18T05:31:13;101382.77;;;12.45;77.05
39177;BME280;24904;52.208;21.192;2022-10-18T05:36:18;101389.40;;;12.41;77.07
39177;BME280;24904;52.208;21.192;2022-10-18T05:41:24;101389.70;;;12.40;77.12
39177;BME280;24904;52.208;21.192;2022-10-18T05:46:29;101390.70;;;12.39;77.32
39177;BME280;24904;52.208;21.192;2022-10-18T05:51:35;101387.73;;;12.45;77.39
39177;BME280;24904;52.208;21.192;2022-10-18T05:56:41;101395.37;;;12.53;77.49
39177;BME280;24904;52.208;21.192;2022-10-18T06:01:46;101400.27;;;12.62;77.57
39177;BME280;24904;52.208;21.192;2022-10-18T06:06:52;101399.33;;;12.66;77.58
39177;BME280;24904;52.208;21.192;2022-10-18T06:11:59;101407.44;;;12.74;77.57
39177;BME280;24904;52.208;21.192;2022-10-18T06:17:04;101410.33;;;12.86;77.46
39177;BME280;24904;52.208;21.192;2022-10-18T06:22:09;101408.35;;;12.95;77.30
39177;BME280;24904;52.208;21.192;2022-10-18T06:27:15;101405.40;;;13.06;77.15
39177;BME280;24904;52.208;21.192;2022-10-18T06:32:20;101406.34;;;13.18;76.89
39177;BME280;24904;52.208;21.192;2022-10-18T06:37:26;101407.90;;;13.30;76.66
39177;BME280;24904;52.208;21.192;2022-10-18T06:42:33;101410.37;;;13.42;76.56
39177;BME280;24904;52.208;21.192;2022-10-18T06:47:38;101406.77;;;13.53;76.40
39177;BME280;24904;52.208;21.192;2022-10-18T06:52:43;101406.80;;;13.66;76.14
39177;BME280;24904;52.208;21.192;2022-10-18T06:57:50;101404.60;;;13.77;75.95
39177;BME280;24904;52.208;21.192;2022-10-18T07:02:57;101407.45;;;13.89;75.73
39177;BME280;24904;52.208;21.192;2022-10-18T07:08:02;101402.41;;;14.00;75.50
39177;BME280;24904;52.208;21.192;2022-10-18T07:13:08;101406.27;;;14.11;75.30
39177;BME280;24904;52.208;21.192;2022-10-18T07:18:13;101409.33;;;14.22;75.16
39177;BME280;24904;52.208;21.192;2022-10-18T07:23:19;101403.06;;;14.32;75.06
39177;BME280;24904;52.208;21.192;2022-10-18T07:28:26;101400.59;;;14.42;75.11
39177;BME280;24904;52.208;21.192;2022-10-18T07:33:32;101402.80;;;14.54;74.98
39177;BME280;24904;52.208;21.192;2022-10-18T07:38:37;101411.05;;;14.65;75.01
39177;BME280;24904;52.208;21.192;2022-10-18T07:43:45;101411.28;;;14.72;74.76
39177;BME280;24904;52.208;21.192;2022-10-18T07:48:51;101405.11;;;14.78;74.71
39177;BME280;24904;52.208;21.192;2022-10-18T07:53:56;101401.31;;;14.85;74.49
39177;BME280;24904;52.208;21.192;2022-10-18T07:59:02;101395.14;;;14.92;74.47
39177;BME280;24904;52.208;21.192;2022-10-18T08:04:07;101395.04;;;15.06;74.15
39177;BME280;24904;52.208;21.192;2022-10-18T08:09:12;101385.52;;;15.20;74.30
39177;BME280;24904;52.208;21.192;2022-10-18T08:14:18;101374.86;;;15.33;74.00
39177;BME280;24904;52.208;21.192;2022-10-18T08:19:23;101370.86;;;15.48;73.76
39177;BME280;24904;52.208;21.192;2022-10-18T08:24:28;101375.54;;;15.59;73.61
39177;BME280;24904;52.208;21.192;2022-10-18T08:29:33;101368.89;;;15.68;73.33
39177;BME280;24904;52.208;21.192;2022-10-18T08:34:39;101361.98;;;15.77;73.42
39177;BME280;24904;52.208;21.192;2022-10-18T08:39:44;101358.07;;;15.87;73.24
39177;BME280;24904;52.208;21.192;2022-10-18T08:44:50;101355.52;;;15.94;72.98
39177;BME280;24904;52.208;21.192;2022-10-18T08:49:59;101355.53;;;16.01;72.76
39177;BME280;24904;52.208;21.192;2022-10-18T08:55:11;101352.02;;;16.10;72.47
39177;BME280;24904;52.208;21.192;2022-10-18T09:00:19;101353.17;;;16.22;72.31
39177;BME280;24904;52.208;21.192;2022-10-18T09:05:30;101348.30;;;16.34;71.76
39177;BME280;24904;52.208;21.192;2022-10-18T09:10:43;101353.27;;;16.51;71.40
39177;BME280;24904;52.208;21.192;2022-10-18T09:23:33;101340.12;;;16.98;70.51
39177;BME280;24904;52.208;21.192;2022-10-18T09:28:52;101339.81;;;17.14;70.30
39177;BME280;24904;52.208;21.192;2022-10-18T09:34:01;101339.16;;;17.25;70.02
39177;BME280;24904;52.208;21.192;2022-10-18T09:39:12;101334.23;;;17.37;69.68
39177;BME280;24904;52.208;21.192;2022-10-18T09:44:20;101327.80;;;17.50;69.71
39177;BME280;24904;52.208;21.192;2022-10-18T09:49:27;101315.15;;;17.61;69.19
39177;BME280;24904;52.208;21.192;2022-10-18T09:54:34;101307.37;;;17.71;69.31
39177;BME280;24904;52.208;21.192;2022-10-18T09:59:42;101298.79;;;17.76;68.71
39177;BME280;24904;52.208;21.192;2022-10-18T10:04:48;101285.98;;;17.83;68.58
39177;BME280;24904;52.208;21.192;2022-10-18T10:09:57;101280.30;;;17.92;68.62
39177;BME280;24904;52.208;21.192;2022-10-18T10:15:17;101271.52;;;18.00;68.60
39177;BME280;24904;52.208;21.192;2022-10-18T10:20:22;101261.02;;;18.07;68.21
39177;BME280;24904;52.208;21.192;2022-10-18T10:25:32;101257.48;;;18.15;68.19
39177;BME280;24904;52.208;21.192;2022-10-18T10:30:36;101252.00;;;18.26;67.91
39177;BME280;24904;52.208;21.192;2022-10-18T10:35:40;101240.90;;;18.36;67.87
39177;BME280;24904;52.208;21.192;2022-10-18T10:40:47;101231.89;;;18.52;67.77
39177;BME280;24904;52.208;21.192;2022-10-18T10:46:02;101221.51;;;18.57;67.02
39177;BME280;24904;52.208;21.192;2022-10-18T10:51:09;101214.90;;;18.57;67.05
39177;BME280;24904;52.208;21.192;2022-10-18T10:56:17;101208.55;;;18.58;67.04
39177;BME280;24904;52.208;21.192;2022-10-18T11:01:28;101199.24;;;18.60;66.84
39177;BME280;24904;52.208;21.192;2022-10-18T11:06:46;101188.89;;;18.62;66.90
39177;BME280;24904;52.208;21.192;2022-10-18T11:11:59;101182.71;;;18.71;66.95
39177;BME280;24904;52.208;21.192;2022-10-18T11:17:10;101182.56;;;18.86;66.72
39177;BME280;24904;52.208;21.192;2022-10-18T11:22:17;101180.91;;;18.93;66.36
39177;BME280;24904;52.208;21.192;2022-10-18T11:27:25;101174.95;;;18.99;66.27
39177;BME280;24904;52.208;21.192;2022-10-18T11:32:36;101168.40;;;19.04;66.18
39177;BME280;24904;52.208;21.192;2022-10-18T11:37:53;101166.58;;;19.10;66.03
39177;BME280;24904;52.208;21.192;2022-10-18T11:43:05;101162.15;;;19.14;65.80
39177;BME280;24904;52.208;21.192;2022-10-18T11:48:25;101158.04;;;19.20;65.58
39177;BME280;24904;52.208;21.192;2022-10-18T11:53:44;101153.23;;;19.22;65.55
39177;BME280;24904;52.208;21.192;2022-10-18T11:59:05;101143.98;;;19.23;65.50
39177;BME280;24904;52.208;21.192;2022-10-18T12:04:14;101134.44;;;19.22;66.13
39177;BME280;24904;52.208;21.192;2022-10-18T12:09:29;101122.09;;;19.24;66.05
39177;BME280;24904;52.208;21.192;2022-10-18T12:14:37;101116.58;;;19.27;65.81
39177;BME280;24904;52.208;21.192;2022-10-18T12:19:43;101112.85;;;19.33;65.58
39177;BME280;24904;52.208;21.192;2022-10-18T12:24:47;101106.89;;;19.32;65.50
39177;BME280;24904;52.208;21.192;2022-10-18T12:29:54;101102.58;;;19.33;65.46
39177;BME280;24904;52.208;21.192;2022-10-18T12:35:01;101092.00;;;19.33;65.41
39177;BME280;24904;52.208;21.192;2022-10-18T12:40:12;101079.75;;;19.33;65.47
39177;BME280;24904;52.208;21.192;2022-10-18T12:45:27;101067.35;;;19.32;65.52
39177;BME280;24904;52.208;21.192;2022-10-18T12:50:33;101060.92;;;19.31;65.52
39177;BME280;24904;52.208;21.192;2022-10-18T12:55:38;101050.52;;;19.28;65.49
39177;BME280;24904;52.208;21.192;2022-10-18T13:01:03;101039.48;;;19.26;65.74
39177;BME280;24904;52.208;21.192;2022-10-18T13:06:07;101036.56;;;19.25;65.78
39177;BME280;24904;52.208;21.192;2022-10-18T13:11:31;101035.64;;;19.23;65.68
39177;BME280;24904;52.208;21.192;2022-10-18T13:16:41;101028.14;;;19.19;66.00
39177;BME280;24904;52.208;21.192;2022-10-18T13:21:50;101021.36;;;19.15;66.21
39177;BME280;24904;52.208;21.192;2022-10-18T13:27:18;101022.80;;;19.08;66.67
39177;BME280;24904;52.208;21.192;2022-10-18T13:32:27;101016.70;;;19.01;66.48
39177;BME280;24904;52.208;21.192;2022-10-18T13:37:33;101010.05;;;18.97;66.44
39177;BME280;24904;52.208;21.192;2022-10-18T13:42:37;101003.48;;;18.94;66.63
39177;BME280;24904;52.208;21.192;2022-10-18T13:47:40;100995.15;;;18.89;66.73
39177;BME280;24904;52.208;21.192;2022-10-18T13:58:16;100982.13;;;18.75;67.64
39177;BME280;24904;52.208;21.192;2022-10-18T14:03:34;100969.27;;;18.66;68.31
39177;BME280;24904;52.208;21.192;2022-10-18T14:08:43;100964.58;;;18.59;68.66
39177;BME280;24904;52.208;21.192;2022-10-18T14:13:53;100958.46;;;18.52;69.00
39177;BME280;24904;52.208;21.192;2022-10-18T14:19:03;100950.20;;;18.47;69.04
39177;BME280;24904;52.208;21.192;2022-10-18T14:24:16;100948.91;;;18.39;69.69
39177;BME280;24904;52.208;21.192;2022-10-18T14:29:20;100944.96;;;18.32;69.97
39177;BME280;24904;52.208;21.192;2022-10-18T14:34:23;100933.98;;;18.26;70.24
39177;BME280;24904;52.208;21.192;2022-10-18T14:39:27;100924.94;;;18.18;70.33
39177;BME280;24904;52.208;21.192;2022-10-18T14:44:31;100916.34;;;18.12;70.58
39177;BME280;24904;52.208;21.192;2022-10-18T14:49:41;100907.91;;;18.07;70.75
39177;BME280;24904;52.208;21.192;2022-10-18T14:54:45;100898.73;;;18.03;70.82
39177;BME280;24904;52.208;21.192;2022-10-18T14:59:51;100902.27;;;17.98;71.01
39177;BME280;24904;52.208;21.192;2022-10-18T15:04:59;100901.57;;;17.92;71.24
39177;BME280;24904;52.208;21.192;2022-10-18T15:10:09;100902.41;;;17.86;71.14
39177;BME280;24904;52.208;21.192;2022-10-18T15:15:20;100896.06;;;17.79;71.41
39177;BME280;24904;52.208;21.192;2022-10-18T15:20:25;100899.65;;;17.67;71.31
39177;BME280;24904;52.208;21.192;2022-10-18T15:25:29;100899.83;;;17.55;71.62
39177;BME280;24904;52.208;21.192;2022-10-18T15:30:38;100892.61;;;17.45;72.06
39177;BME280;24904;52.208;21.192;2022-10-18T15:35:44;100895.59;;;17.32;72.23
39177;BME280;24904;52.208;21.192;2022-10-18T15:40:47;100893.25;;;17.18;72.21
39177;BME280;24904;52.208;21.192;2022-10-18T15:45:52;100900.01;;;17.03;72.36
39177;BME280;24904;52.208;21.192;2022-10-18T15:50:56;100901.06;;;16.87;72.68
39177;BME280;24904;52.208;21.192;2022-10-18T15:56:04;100912.14;;;16.74;73.18
39177;BME280;24904;52.208;21.192;2022-10-18T16:01:20;100922.39;;;16.69;73.59
39177;BME280;24904;52.208;21.192;2022-10-18T16:06:24;100926.36;;;16.62;74.04
39177;BME280;24904;52.208;21.192;2022-10-18T16:11:27;100947.48;;;16.48;74.45
39177;BME280;24904;52.208;21.192;2022-10-18T16:16:31;100973.04;;;16.34;75.39
39177;BME280;24904;52.208;21.192;2022-10-18T16:21:36;100981.08;;;16.16;76.32
39177;BME280;24904;52.208;21.192;2022-10-18T16:26:40;101019.48;;;16.01;76.79
39177;BME280;24904;52.208;21.192;2022-10-18T16:31:44;101007.24;;;15.85;77.15
39177;BME280;24904;52.208;21.192;2022-10-18T16:36:48;100989.98;;;15.70;77.98
39177;BME280;24904;52.208;21.192;2022-10-18T16:41:52;100976.86;;;15.61;78.50
39177;BME280;24904;52.208;21.192;2022-10-18T16:46:55;100965.84;;;15.54;78.92
39177;BME280;24904;52.208;21.192;2022-10-18T16:51:58;100972.23;;;15.48;79.03
39177;BME280;24904;52.208;21.192;2022-10-18T16:57:03;100985.99;;;15.38;79.37
39177;BME280;24904;52.208;21.192;2022-10-18T17:02:09;100978.38;;;15.27;79.59
39177;BME280;24904;52.208;21.192;2022-10-18T17:07:20;100995.14;;;15.25;79.80
39177;BME280;24904;52.208;21.192;2022-10-18T17:12:24;101018.38;;;15.23;80.23
39177;BME280;24904;52.208;21.192;2022-10-18T17:17:30;101013.30;;;15.19;80.58
39177;BME280;24904;52.208;21.192;2022-10-18T17:22:35;101014.55;;;15.15;80.79
39177;BME280;24904;52.208;21.192;2022-10-18T17:27:40;101027.19;;;15.09;80.90
39177;BME280;24904;52.208;21.192;2022-10-18T17:32:45;101022.73;;;15.04;81.25
39177;BME280;24904;52.208;21.192;2022-10-18T17:37:50;101017.98;;;15.02;81.60
39177;BME280;24904;52.208;21.192;2022-10-18T17:42:55;101030.30;;;14.98;81.75
39177;BME280;24904;52.208;21.192;2022-10-18T17:47:59;101039.69;;;14.93;82.08
39177;BME280;24904;52.208;21.192;2022-10-18T17:53:04;101034.36;;;14.88;82.27
39177;BME280;24904;52.208;21.192;2022-10-18T18:08:58;101064.75;;;14.67;81.94
39177;BME280;24904;52.208;21.192;2022-10-18T18:14:01;101082.16;;;14.56;81.95
39177;BME280;24904;52.208;21.192;2022-10-18T18:19:09;101069.64;;;14.50;82.10
39177;BME280;24904;52.208;21.192;2022-10-18T18:24:13;101055.67;;;14.42;82.22
39177;BME280;24904;52.208;21.192;2022-10-18T18:29:17;101042.52;;;14.36;82.28
39177;BME280;24904;52.208;21.192;2022-10-18T18:34:20;101038.20;;;14.29;82.45
39177;BME280;24904;52.208;21.192;2022-10-18T18:39:25;101023.76;;;14.26;82.44
39177;BME280;24904;52.208;21.192;2022-10-18T18:44:31;101004.09;;;14.23;82.34
39177;BME280;24904;52.208;21.192;2022-10-18T18:49:35;101006.20;;;14.22;82.26
39177;BME280;24904;52.208;21.192;2022-10-18T18:54:38;101014.59;;;14.24;82.58
39177;BME280;24904;52.208;21.192;2022-10-18T18:59:41;101015.23;;;14.25;82.41
39177;BME280;24904;52.208;21.192;2022-10-18T19:04:44;101031.96;;;14.17;82.39
39177;BME280;24904;52.208;21.192;2022-10-18T19:09:47;101048.74;;;14.10;82.52
39177;BME280;24904;52.208;21.192;2022-10-18T19:14:52;101068.02;;;14.05;82.58
39177;BME280;24904;52.208;21.192;2022-10-18T19:19:55;101066.98;;;14.03;82.71
39177;BME280;24904;52.208;21.192;2022-10-18T19:25:00;101065.70;;;14.02;82.77
39177;BME280;24904;52.208;21.192;2022-10-18T19:30:03;101067.59;;;14.01;82.98
39177;BME280;24904;52.208;21.192;2022-10-18T19:35:08;101066.42;;;14.03;83.14
39177;BME280;24904;52.208;21.192;2022-10-18T19:40:12;101071.77;;;14.01;83.23
39177;BME280;24904;52.208;21.192;2022-10-18T19:45:15;101067.90;;;14.00;83.19
39177;BME280;24904;52.208;21.192;2022-10-18T19:50:18;101072.41;;;14.02;83.30
39177;BME280;24904;52.208;21.192;2022-10-18T19:55:21;101061.20;;;14.02;83.34
39177;BME280;24904;52.208;21.192;2022-10-18T20:00:26;101054.56;;;13.98;83.34
39177;BME280;24904;52.208;21.192;2022-10-18T20:05:29;101051.78;;;13.96;83.49
39177;BME280;24904;52.208;21.192;2022-10-18T20:10:32;101051.52;;;13.94;83.60
39177;BME280;24904;52.208;21.192;2022-10-18T20:15:36;101054.64;;;13.90;83.66
39177;BME280;24904;52.208;21.192;2022-10-18T20:20:39;101045.89;;;13.91;83.77
39177;BME280;24904;52.208;21.192;2022-10-18T20:25:42;101045.96;;;13.90;83.88
39177;BME280;24904;52.208;21.192;2022-10-18T20:30:45;101040.89;;;13.87;83.96
39177;BME280;24904;52.208;21.192;2022-10-18T20:35:48;101038.54;;;13.87;84.07
39177;BME280;24904;52.208;21.192;2022-10-18T20:40:52;101037.60;;;13.89;84.13
39177;BME280;24904;52.208;21.192;2022-10-18T20:45:56;101038.61;;;13.88;84.25
39177;BME280;24904;52.208;21.192;2022-10-18T20:51:04;101038.54;;;13.89;84.33
39177;BME280;24904;52.208;21.192;2022-10-18T20:56:09;101041.55;;;13.91;84.37
39177;BME280;24904;52.208;21.192;2022-10-18T21:01:13;101039.55;;;13.94;84.36
39177;BME280;24904;52.208;21.192;2022-10-18T21:06:19;101043.66;;;13.95;84.50
39177;BME280;24904;52.208;21.192;2022-10-18T21:11:23;101038.11;;;13.94;84.52
39177;BME280;24904;52.208;21.192;2022-10-18T21:16:27;101035.88;;;13.91;84.57
39177;BME280;24904;52.208;21.192;2022-10-18T21:27:12;101030.52;;;13.92;84.80
39177;BME280;24904;52.208;21.192;2022-10-18T21:32:17;101031.05;;;13.90;84.95
39177;BME280;24904;52.208;21.192;2022-10-18T21:37:21;101031.28;;;13.88;84.93
39177;BME280;24904;52.208;21.192;2022-10-18T21:42:24;101030.55;;;13.85;85.11
39177;BME280;24904;52.208;21.192;2022-10-18T21:47:27;101024.82;;;13.79;85.10
39177;BME280;24904;52.208;21.192;2022-10-18T21:52:30;101022.58;;;13.74;85.20
39177;BME280;24904;52.208;21.192;2022-10-18T21:57:33;101029.16;;;13.70;85.37
39177;BME280;24904;52.208;21.192;2022-10-18T22:02:37;101031.84;;;13.70;85.67
39177;BME280;24904;52.208;21.192;2022-10-18T22:07:40;101030.42;;;13.69;85.78
39177;BME280;24904;52.208;21.192;2022-10-18T22:12:43;101027.48;;;13.67;85.78
39177;BME280;24904;52.208;21.192;2022-10-18T22:17:48;101021.04;;;13.62;85.87
39177;BME280;24904;52.208;21.192;2022-10-18T22:22:52;101019.05;;;13.61;85.97
39177;BME280;24904;52.208;21.192;2022-10-18T22:27:56;101015.65;;;13.60;86.06
39177;BME280;24904;52.208;21.192;2022-10-18T22:33:00;101017.87;;;13.60;86.22
39177;BME280;24904;52.208;21.192;2022-10-18T22:38:03;101018.43;;;13.61;86.10
39177;BME280;24904;52.208;21.192;2022-10-18T22:43:07;101016.84;;;13.59;86.09
39177;BME280;24904;52.208;21.192;2022-10-18T22:48:10;101012.03;;;13.59;86.16
39177;BME280;24904;52.208;21.192;2022-10-18T22:53:13;101010.54;;;13.60;86.12
39177;BME280;24904;52.208;21.192;2022-10-18T22:58:16;101010.92;;;13.58;86.03
39177;BME280;24904;52.208;21.192;2022-10-18T23:03:20;101011.70;;;13.57;86.05
39177;BME280;24904;52.208;21.192;2022-10-18T23:08:23;101013.09;;;13.53;85.95
39177;BME280;24904;52.208;21.192;2022-10-18T23:13:27;101007.40;;;13.53;85.99
39177;BME280;24904;52.208;21.192;2022-10-18T23:18:31;101003.44;;;13.51;85.60
39177;BME280;24904;52.208;21.192;2022-10-18T23:23:36;101002.54;;;13.48;85.69
39177;BME280;24904;52.208;21.192;2022-10-18T23:28:41;101004.70;;;13.43;85.83
39177;BME280;24904;52.208;21.192;2022-10-18T23:33:45;101000.61;;;13.42;85.88
39177;BME280;24904;52.208;21.192;2022-10-18T23:38:49;101003.04;;;13.41;85.78
39177;BME280;24904;52.208;21.192;2022-10-18T23:43:52;101000.10;;;13.39;85.87
39177;BME280;24904;52.208;21.192;2022-10-18T23:48:56;100995.46;;;13.33;85.74
39177;BME280;24904;52.208;21.192;2022-10-18T23:53:59;100999.69;;;13.30;85.77
39177;BME280;24904;52.208;21.192;2022-10-18T23:59:02;101000.14;;;13.28;85.79
